sensor_id;sensor_type;location;lat;lon;timestamp;P1;durP1;ratioP1;P2;durP2;ratioP2
5393;SDS011;2720;52.396;10.064;2023-03-04T00:02:22;17.97;;;4.50;;
5393;SDS011;2720;52.396;10.064;2023-03-04T00:04:49;28.83;;;3.33;;
5393;SDS011;2720;52.396;10.064;2023-03-04T00:07:16;25.90;;;4.20;;
5393;SDS011;2720;52.396;10.064;2023-03-04T00:09:43;14.37;;;3.87;;
5393;SDS011;2720;52.396;10.064;2023-03-04T00:12:11;25.30;;;4.07;;
5393;SDS011;2720;52.396;10.064;2023-03-04T00:14:39;19.30;;;4.93;;
5393;SDS011;2720;52.396;10.064;2023-03-04T00:17:07;20.17;;;5.00;;
5393;SDS011;2720;52.396;10.064;2023-03-04T00:19:34;17.77;;;4.10;;
5393;SDS011;2720;52.396;10.064;2023-03-04T00:22:01;22.17;;;4.63;;
5393;SDS011;2720;52.396;10.064;2023-03-04T00:24:29;20.23;;;4.43;;
5393;SDS011;2720;52.396;10.064;2023-03-04T00:26:55;20.20;;;5.40;;
5393;SDS011;2720;52.396;10.064;2023-03-04T00:29:23;16.97;;;4.60;;
5393;SDS011;2720;52.396;10.064;2023-03-04T00:31:51;24.63;;;4.87;;
5393;SDS011;2720;52.396;10.064;2023-03-04T00:34:18;16.57;;;3.80;;
5393;SDS011;2720;52.396;10.064;2023-03-04T00:36:45;27.13;;;5.10;;
5393;SDS011;2720;52.396;10.064;2023-03-04T00:39:12;28.10;;;4.50;;
5393;SDS011;2720;52.396;10.064;2023-03-04T00:41:40;19.30;;;4.37;;
5393;SDS011;2720;52.396;10.064;2023-03-04T00:44:07;13.83;;;4.40;;
5393;SDS011;2720;52.396;10.064;2023-03-04T00:46:34;20.97;;;7.10;;
5393;SDS011;2720;52.396;10.064;2023-03-04T00:49:03;28.07;;;4.20;;
5393;SDS011;2720;52.396;10.064;2023-03-04T00:51:30;13.87;;;4.57;;
5393;SDS011;2720;52.396;10.064;2023-03-04T00:53:57;18.43;;;3.97;;
5393;SDS011;2720;52.396;10.064;2023-03-04T00:56:24;28.70;;;5.43;;
5393;SDS011;2720;52.396;10.064;2023-03-04T00:58:51;11.00;;;4.00;;
5393;SDS011;2720;52.396;10.064;2023-03-04T01:01:18;18.90;;;3.80;;
5393;SDS011;2720;52.396;10.064;2023-03-04T01:03:44;20.83;;;5.10;;
5393;SDS011;2720;52.396;10.064;2023-03-04T01:06:13;35.97;;;4.63;;
5393;SDS011;2720;52.396;10.064;2023-03-04T01:08:40;23.40;;;4.20;;
5393;SDS011;2720;52.396;10.064;2023-03-04T01:11:07;22.20;;;3.73;;
5393;SDS011;2720;52.396;10.064;2023-03-04T01:13:34;19.83;;;4.90;;
5393;SDS011;2720;52.396;10.064;2023-03-04T01:16:02;12.53;;;3.50;;
5393;SDS011;2720;52.396;10.064;2023-03-04T01:18:30;19.50;;;4.03;;
5393;SDS011;2720;52.396;10.064;2023-03-04T01:20:57;22.57;;;4.77;;
5393;SDS011;2720;52.396;10.064;2023-03-04T01:23:25;34.90;;;5.60;;
5393;SDS011;2720;52.396;10.064;2023-03-04T01:25:52;20.80;;;3.60;;
5393;SDS011;2720;52.396;10.064;2023-03-04T01:28:19;29.70;;;4.50;;
5393;SDS011;2720;52.396;10.064;2023-03-04T01:30:46;22.57;;;3.77;;
5393;SDS011;2720;52.396;10.064;2023-03-04T01:33:13;16.60;;;3.53;;
5393;SDS011;2720;52.396;10.064;2023-03-04T01:35:41;14.47;;;4.00;;
5393;SDS011;2720;52.396;10.064;2023-03-04T01:38:07;24.07;;;3.93;;
5393;SDS011;2720;52.396;10.064;2023-03-04T01:40:36;27.33;;;3.80;;
5393;SDS011;2720;52.396;10.064;2023-03-04T01:43:04;13.37;;;2.83;;
5393;SDS011;2720;52.396;10.064;2023-03-04T01:45:31;19.93;;;4.20;;
5393;SDS011;2720;52.396;10.064;2023-03-04T01:47:59;17.27;;;4.10;;
5393;SDS011;2720;52.396;10.064;2023-03-04T01:50:27;24.50;;;4.03;;
5393;SDS011;2720;52.396;10.064;2023-03-04T01:52:57;19.00;;;4.10;;
5393;SDS011;2720;52.396;10.064;2023-03-04T01:55:24;11.57;;;3.40;;
5393;SDS011;2720;52.396;10.064;2023-03-04T01:57:52;13.10;;;3.20;;
5393;SDS011;2720;52.396;10.064;2023-03-04T02:00:25;22.33;;;3.47;;
5393;SDS011;2720;52.396;10.064;2023-03-04T02:02:56;20.87;;;3.87;;
5393;SDS011;2720;52.396;10.064;2023-03-04T02:05:25;13.80;;;3.00;;
5393;SDS011;2720;52.396;10.064;2023-03-04T02:07:53;14.73;;;3.50;;
5393;SDS011;2720;52.396;10.064;2023-03-04T02:10:22;17.13;;;3.63;;
5393;SDS011;2720;52.396;10.064;2023-03-04T02:12:49;16.97;;;3.57;;
5393;SDS011;2720;52.396;10.064;2023-03-04T02:15:18;19.30;;;2.70;;
5393;SDS011;2720;52.396;10.064;2023-03-04T02:17:46;24.83;;;2.87;;
5393;SDS011;2720;52.396;10.064;2023-03-04T02:20:24;10.80;;;2.90;;
5393;SDS011;2720;52.396;10.064;2023-03-04T02:23:00;9.50;;;2.03;;
5393;SDS011;2720;52.396;10.064;2023-03-04T02:25:34;21.07;;;6.27;;
5393;SDS011;2720;52.396;10.064;2023-03-04T02:28:07;15.63;;;2.47;;
5393;SDS011;2720;52.396;10.064;2023-03-04T02:30:34;11.63;;;2.70;;
5393;SDS011;2720;52.396;10.064;2023-03-04T02:33:01;7.93;;;2.33;;
5393;SDS011;2720;52.396;10.064;2023-03-04T02:35:28;19.80;;;3.60;;
5393;SDS011;2720;52.396;10.064;2023-03-04T02:37:55;18.07;;;2.23;;
5393;SDS011;2720;52.396;10.064;2023-03-04T02:40:23;9.73;;;2.80;;
5393;SDS011;2720;52.396;10.064;2023-03-04T02:42:53;4.97;;;2.20;;
5393;SDS011;2720;52.396;10.064;2023-03-04T02:45:28;14.10;;;4.13;;
5393;SDS011;2720;52.396;10.064;2023-03-04T02:47:59;23.27;;;3.13;;
5393;SDS011;2720;52.396;10.064;2023-03-04T02:50:26;12.13;;;2.50;;
5393;SDS011;2720;52.396;10.064;2023-03-04T02:52:56;15.13;;;2.90;;
5393;SDS011;2720;52.396;10.064;2023-03-04T02:55:23;6.40;;;1.87;;
5393;SDS011;2720;52.396;10.064;2023-03-04T02:57:50;11.13;;;2.23;;
5393;SDS011;2720;52.396;10.064;2023-03-04T03:00:18;11.33;;;3.30;;
5393;SDS011;2720;52.396;10.064;2023-03-04T03:02:46;9.83;;;2.57;;
5393;SDS011;2720;52.396;10.064;2023-03-04T03:05:13;19.93;;;3.17;;
5393;SDS011;2720;52.396;10.064;2023-03-04T03:07:41;15.43;;;2.27;;
5393;SDS011;2720;52.396;10.064;2023-03-04T03:10:08;11.70;;;2.50;;
5393;SDS011;2720;52.396;10.064;2023-03-04T03:12:36;10.97;;;2.07;;
5393;SDS011;2720;52.396;10.064;2023-03-04T03:15:03;25.90;;;2.40;;
5393;SDS011;2720;52.396;10.064;2023-03-04T03:17:31;14.90;;;2.53;;
5393;SDS011;2720;52.396;10.064;2023-03-04T03:19:59;11.50;;;2.17;;
5393;SDS011;2720;52.396;10.064;2023-03-04T03:22:26;37.40;;;4.10;;
5393;SDS011;2720;52.396;10.064;2023-03-04T03:24:53;19.17;;;1.90;;
5393;SDS011;2720;52.396;10.064;2023-03-04T03:27:20;12.10;;;2.23;;
5393;SDS011;2720;52.396;10.064;2023-03-04T03:29:47;12.37;;;2.50;;
5393;SDS011;2720;52.396;10.064;2023-03-04T03:32:14;15.73;;;2.07;;
5393;SDS011;2720;52.396;10.064;2023-03-04T03:34:41;7.03;;;2.33;;
5393;SDS011;2720;52.396;10.064;2023-03-04T03:37:09;14.03;;;3.10;;
5393;SDS011;2720;52.396;10.064;2023-03-04T03:39:36;19.00;;;4.20;;
5393;SDS011;2720;52.396;10.064;2023-03-04T03:42:03;21.90;;;2.63;;
5393;SDS011;2720;52.396;10.064;2023-03-04T03:44:33;11.03;;;2.40;;
5393;SDS011;2720;52.396;10.064;2023-03-04T03:47:00;26.53;;;3.37;;
5393;SDS011;2720;52.396;10.064;2023-03-04T03:49:28;11.13;;;2.10;;
5393;SDS011;2720;52.396;10.064;2023-03-04T03:51:56;9.30;;;2.63;;
5393;SDS011;2720;52.396;10.064;2023-03-04T03:54:24;14.50;;;2.07;;
5393;SDS011;2720;52.396;10.064;2023-03-04T03:56:51;11.77;;;2.93;;
5393;SDS011;2720;52.396;10.064;2023-03-04T03:59:18;8.43;;;2.20;;
5393;SDS011;2720;52.396;10.064;2023-03-04T04:01:45;5.03;;;2.03;;
5393;SDS011;2720;52.396;10.064;2023-03-04T04:04:12;12.97;;;3.00;;
5393;SDS011;2720;52.396;10.064;2023-03-04T04:06:39;5.13;;;1.80;;
5393;SDS011;2720;52.396;10.064;2023-03-04T04:09:06;9.20;;;1.70;;
5393;SDS011;2720;52.396;10.064;2023-03-04T04:11:35;9.10;;;1.83;;
5393;SDS011;2720;52.396;10.064;2023-03-04T04:14:02;6.70;;;1.47;;
5393;SDS011;2720;52.396;10.064;2023-03-04T04:16:29;8.80;;;2.97;;
5393;SDS011;2720;52.396;10.064;2023-03-04T04:18:56;8.13;;;1.70;;
5393;SDS011;2720;52.396;10.064;2023-03-04T04:21:23;5.90;;;1.40;;
5393;SDS011;2720;52.396;10.064;2023-03-04T04:23:50;6.10;;;1.47;;
5393;SDS011;2720;52.396;10.064;2023-03-04T04:26:17;6.63;;;1.97;;
5393;SDS011;2720;52.396;10.064;2023-03-04T04:28:45;14.57;;;1.47;;
5393;SDS011;2720;52.396;10.064;2023-03-04T04:31:13;20.63;;;2.20;;
5393;SDS011;2720;52.396;10.064;2023-03-04T04:33:40;10.77;;;2.20;;
5393;SDS011;2720;52.396;10.064;2023-03-04T04:36:08;11.97;;;2.03;;
5393;SDS011;2720;52.396;10.064;2023-03-04T04:38:38;7.70;;;1.77;;
5393;SDS011;2720;52.396;10.064;2023-03-04T04:41:05;11.60;;;2.23;;
5393;SDS011;2720;52.396;10.064;2023-03-04T04:43:39;14.43;;;2.00;;
5393;SDS011;2720;52.396;10.064;2023-03-04T04:46:08;13.17;;;3.10;;
5393;SDS011;2720;52.396;10.064;2023-03-04T04:48:35;7.67;;;1.90;;
5393;SDS011;2720;52.396;10.064;2023-03-04T04:51:02;14.87;;;2.67;;
5393;SDS011;2720;52.396;10.064;2023-03-04T04:53:29;8.00;;;2.17;;
5393;SDS011;2720;52.396;10.064;2023-03-04T04:55:56;16.90;;;2.63;;
5393;SDS011;2720;52.396;10.064;2023-03-04T04:58:23;9.73;;;2.30;;
5393;SDS011;2720;52.396;10.064;2023-03-04T05:00:50;21.73;;;3.17;;
5393;SDS011;2720;52.396;10.064;2023-03-04T05:03:19;6.87;;;2.07;;
5393;SDS011;2720;52.396;10.064;2023-03-04T05:05:46;5.40;;;1.47;;
5393;SDS011;2720;52.396;10.064;2023-03-04T05:08:13;13.50;;;1.90;;
5393;SDS011;2720;52.396;10.064;2023-03-04T05:10:40;5.40;;;2.03;;
5393;SDS011;2720;52.396;10.064;2023-03-04T05:13:07;14.07;;;2.13;;
5393;SDS011;2720;52.396;10.064;2023-03-04T05:15:36;10.67;;;2.10;;
5393;SDS011;2720;52.396;10.064;2023-03-04T05:18:03;5.93;;;1.47;;
5393;SDS011;2720;52.396;10.064;2023-03-04T05:20:31;9.27;;;1.50;;
5393;SDS011;2720;52.396;10.064;2023-03-04T05:22:58;7.97;;;2.17;;
5393;SDS011;2720;52.396;10.064;2023-03-04T05:25:25;4.40;;;1.97;;
5393;SDS011;2720;52.396;10.064;2023-03-04T05:27:52;4.73;;;1.70;;
5393;SDS011;2720;52.396;10.064;2023-03-04T05:30:19;3.50;;;1.23;;
5393;SDS011;2720;52.396;10.064;2023-03-04T05:32:46;6.23;;;1.90;;
5393;SDS011;2720;52.396;10.064;2023-03-04T05:35:13;12.07;;;2.43;;
5393;SDS011;2720;52.396;10.064;2023-03-04T05:37:42;4.37;;;1.53;;
5393;SDS011;2720;52.396;10.064;2023-03-04T05:40:09;9.23;;;1.87;;
5393;SDS011;2720;52.396;10.064;2023-03-04T05:42:37;7.63;;;1.80;;
5393;SDS011;2720;52.396;10.064;2023-03-04T05:45:04;14.27;;;2.27;;
5393;SDS011;2720;52.396;10.064;2023-03-04T05:47:32;10.43;;;2.60;;
5393;SDS011;2720;52.396;10.064;2023-03-04T05:49:59;10.80;;;2.30;;
5393;SDS011;2720;52.396;10.064;2023-03-04T05:52:26;22.33;;;3.10;;
5393;SDS011;2720;52.396;10.064;2023-03-04T05:54:55;13.03;;;2.27;;
5393;SDS011;2720;52.396;10.064;2023-03-04T05:57:21;15.53;;;2.23;;
5393;SDS011;2720;52.396;10.064;2023-03-04T05:59:48;11.93;;;2.17;;
5393;SDS011;2720;52.396;10.064;2023-03-04T06:02:15;8.97;;;2.40;;
5393;SDS011;2720;52.396;10.064;2023-03-04T06:04:42;8.23;;;2.03;;
5393;SDS011;2720;52.396;10.064;2023-03-04T06:07:10;3.50;;;2.50;;
5393;SDS011;2720;52.396;10.064;2023-03-04T06:09:37;12.47;;;2.47;;
5393;SDS011;2720;52.396;10.064;2023-03-04T06:12:05;4.20;;;1.87;;
5393;SDS011;2720;52.396;10.064;2023-03-04T06:14:33;19.50;;;2.90;;
5393;SDS011;2720;52.396;10.064;2023-03-04T06:17:00;9.63;;;2.70;;
5393;SDS011;2720;52.396;10.064;2023-03-04T06:19:27;9.90;;;1.90;;
5393;SDS011;2720;52.396;10.064;2023-03-04T06:21:54;12.17;;;2.90;;
5393;SDS011;2720;52.396;10.064;2023-03-04T06:24:21;19.63;;;3.00;;
5393;SDS011;2720;52.396;10.064;2023-03-04T06:26:48;2.53;;;1.73;;
5393;SDS011;2720;52.396;10.064;2023-03-04T06:29:16;2.40;;;1.70;;
5393;SDS011;2720;52.396;10.064;2023-03-04T06:31:43;21.60;;;2.20;;
5393;SDS011;2720;52.396;10.064;2023-03-04T06:34:10;10.27;;;2.07;;
5393;SDS011;2720;52.396;10.064;2023-03-04T06:36:37;5.90;;;1.90;;
5393;SDS011;2720;52.396;10.064;2023-03-04T06:39:04;7.97;;;1.90;;
5393;SDS011;2720;52.396;10.064;2023-03-04T06:41:33;9.07;;;2.30;;
5393;SDS011;2720;52.396;10.064;2023-03-04T06:44:00;7.50;;;2.00;;
5393;SDS011;2720;52.396;10.064;2023-03-04T06:46:28;7.90;;;2.00;;
5393;SDS011;2720;52.396;10.064;2023-03-04T06:48:55;13.37;;;2.70;;
5393;SDS011;2720;52.396;10.064;2023-03-04T06:51:23;15.57;;;2.57;;
5393;SDS011;2720;52.396;10.064;2023-03-04T06:53:50;9.70;;;3.13;;
5393;SDS011;2720;52.396;10.064;2023-03-04T06:56:17;12.93;;;2.23;;
5393;SDS011;2720;52.396;10.064;2023-03-04T06:58:44;4.80;;;1.77;;
5393;SDS011;2720;52.396;10.064;2023-03-04T07:01:12;15.60;;;3.30;;
5393;SDS011;2720;52.396;10.064;2023-03-04T07:03:43;14.13;;;1.90;;
5393;SDS011;2720;52.396;10.064;2023-03-04T07:06:11;5.97;;;2.07;;
5393;SDS011;2720;52.396;10.064;2023-03-04T07:08:39;6.97;;;2.03;;
5393;SDS011;2720;52.396;10.064;2023-03-04T07:11:07;23.63;;;2.40;;
5393;SDS011;2720;52.396;10.064;2023-03-04T07:13:34;8.70;;;2.37;;
5393;SDS011;2720;52.396;10.064;2023-03-04T07:16:02;9.73;;;2.53;;
5393;SDS011;2720;52.396;10.064;2023-03-04T07:18:30;8.80;;;2.43;;
5393;SDS011;2720;52.396;10.064;2023-03-04T07:20:58;5.60;;;2.40;;
5393;SDS011;2720;52.396;10.064;2023-03-04T07:23:25;13.97;;;2.33;;
5393;SDS011;2720;52.396;10.064;2023-03-04T07:25:52;15.27;;;2.30;;
5393;SDS011;2720;52.396;10.064;2023-03-04T07:28:20;18.97;;;4.70;;
5393;SDS011;2720;52.396;10.064;2023-03-04T07:30:47;8.00;;;2.00;;
5393;SDS011;2720;52.396;10.064;2023-03-04T07:33:14;5.87;;;2.43;;
5393;SDS011;2720;52.396;10.064;2023-03-04T07:35:41;11.00;;;3.43;;
5393;SDS011;2720;52.396;10.064;2023-03-04T07:38:09;5.60;;;1.97;;
5393;SDS011;2720;52.396;10.064;2023-03-04T07:40:36;13.27;;;2.50;;
5393;SDS011;2720;52.396;10.064;2023-03-04T07:43:03;3.40;;;1.63;;
5393;SDS011;2720;52.396;10.064;2023-03-04T07:45:30;7.30;;;2.00;;
5393;SDS011;2720;52.396;10.064;2023-03-04T07:47:57;10.53;;;3.57;;
5393;SDS011;2720;52.396;10.064;2023-03-04T07:50:24;12.83;;;1.73;;
5393;SDS011;2720;52.396;10.064;2023-03-04T07:52:51;4.63;;;1.80;;
5393;SDS011;2720;52.396;10.064;2023-03-04T07:55:20;15.90;;;2.00;;
5393;SDS011;2720;52.396;10.064;2023-03-04T07:57:47;11.13;;;2.00;;
5393;SDS011;2720;52.396;10.064;2023-03-04T08:00:14;9.83;;;2.67;;
5393;SDS011;2720;52.396;10.064;2023-03-04T08:02:42;6.13;;;1.73;;
5393;SDS011;2720;52.396;10.064;2023-03-04T08:05:09;6.13;;;1.80;;
5393;SDS011;2720;52.396;10.064;2023-03-04T08:07:36;4.80;;;2.07;;
5393;SDS011;2720;52.396;10.064;2023-03-04T08:10:03;15.93;;;3.77;;
5393;SDS011;2720;52.396;10.064;2023-03-04T08:12:33;10.03;;;2.53;;
5393;SDS011;2720;52.396;10.064;2023-03-04T08:15:00;5.57;;;1.77;;
5393;SDS011;2720;52.396;10.064;2023-03-04T08:17:28;6.00;;;3.03;;
5393;SDS011;2720;52.396;10.064;2023-03-04T08:19:55;10.60;;;2.80;;
5393;SDS011;2720;52.396;10.064;2023-03-04T08:22:22;6.47;;;2.80;;
5393;SDS011;2720;52.396;10.064;2023-03-04T08:24:48;7.50;;;2.90;;
5393;SDS011;2720;52.396;10.064;2023-03-04T08:27:15;18.37;;;2.03;;
5393;SDS011;2720;52.396;10.064;2023-03-04T08:29:44;9.87;;;1.70;;
5393;SDS011;2720;52.396;10.064;2023-03-04T08:32:11;10.20;;;1.90;;
5393;SDS011;2720;52.396;10.064;2023-03-04T08:34:38;8.00;;;2.43;;
5393;SDS011;2720;52.396;10.064;2023-03-04T08:37:05;3.40;;;1.60;;
5393;SDS011;2720;52.396;10.064;2023-03-04T08:39:32;7.27;;;2.27;;
5393;SDS011;2720;52.396;10.064;2023-03-04T08:42:00;7.47;;;2.53;;
5393;SDS011;2720;52.396;10.064;2023-03-04T08:44:27;5.30;;;2.10;;
5393;SDS011;2720;52.396;10.064;2023-03-04T08:46:56;3.10;;;1.30;;
5393;SDS011;2720;52.396;10.064;2023-03-04T08:49:23;3.10;;;1.97;;
5393;SDS011;2720;52.396;10.064;2023-03-04T08:51:50;2.83;;;1.83;;
5393;SDS011;2720;52.396;10.064;2023-03-04T08:54:17;6.13;;;1.73;;
5393;SDS011;2720;52.396;10.064;2023-03-04T08:56:43;6.93;;;1.87;;
5393;SDS011;2720;52.396;10.064;2023-03-04T08:59:11;3.53;;;2.23;;
5393;SDS011;2720;52.396;10.064;2023-03-04T09:01:38;5.40;;;2.30;;
5393;SDS011;2720;52.396;10.064;2023-03-04T09:04:06;10.83;;;2.77;;
5393;SDS011;2720;52.396;10.064;2023-03-04T09:06:33;3.80;;;1.80;;
5393;SDS011;2720;52.396;10.064;2023-03-04T09:09:00;5.37;;;2.20;;
5393;SDS011;2720;52.396;10.064;2023-03-04T09:11:28;8.03;;;2.27;;
5393;SDS011;2720;52.396;10.064;2023-03-04T09:13:55;4.83;;;2.00;;
5393;SDS011;2720;52.396;10.064;2023-03-04T09:16:22;6.03;;;1.70;;
5393;SDS011;2720;52.396;10.064;2023-03-04T09:18:49;6.93;;;2.30;;
5393;SDS011;2720;52.396;10.064;2023-03-04T09:21:18;2.50;;;1.77;;
5393;SDS011;2720;52.396;10.064;2023-03-04T09:23:45;15.20;;;3.77;;
5393;SDS011;2720;52.396;10.064;2023-03-04T09:26:12;12.17;;;3.77;;
5393;SDS011;2720;52.396;10.064;2023-03-04T09:28:41;9.20;;;2.33;;
5393;SDS011;2720;52.396;10.064;2023-03-04T09:31:11;3.37;;;2.57;;
5393;SDS011;2720;52.396;10.064;2023-03-04T09:33:39;5.97;;;1.57;;
5393;SDS011;2720;52.396;10.064;2023-03-04T09:36:07;16.57;;;2.07;;
5393;SDS011;2720;52.396;10.064;2023-03-04T09:38:36;3.43;;;1.67;;
5393;SDS011;2720;52.396;10.064;2023-03-04T09:41:05;8.57;;;3.47;;
5393;SDS011;2720;52.396;10.064;2023-03-04T09:43:34;6.13;;;2.13;;
5393;SDS011;2720;52.396;10.064;2023-03-04T09:46:04;13.07;;;1.97;;
5393;SDS011;2720;52.396;10.064;2023-03-04T09:48:38;5.10;;;1.53;;
5393;SDS011;2720;52.396;10.064;2023-03-04T09:54:08;6.57;;;1.60;;
5393;SDS011;2720;52.396;10.064;2023-03-04T09:56:40;5.13;;;2.17;;
5393;SDS011;2720;52.396;10.064;2023-03-04T09:59:13;7.53;;;1.93;;
5393;SDS011;2720;52.396;10.064;2023-03-04T10:01:49;6.27;;;3.07;;
5393;SDS011;2720;52.396;10.064;2023-03-04T10:04:21;9.53;;;1.30;;
5393;SDS011;2720;52.396;10.064;2023-03-04T10:06:59;16.03;;;3.00;;
5393;SDS011;2720;52.396;10.064;2023-03-04T10:09:31;8.60;;;2.80;;
5393;SDS011;2720;52.396;10.064;2023-03-04T10:12:10;9.30;;;2.80;;
5393;SDS011;2720;52.396;10.064;2023-03-04T10:14:42;17.53;;;3.00;;
5393;SDS011;2720;52.396;10.064;2023-03-04T10:17:12;26.07;;;2.80;;
5393;SDS011;2720;52.396;10.064;2023-03-04T10:19:51;15.20;;;2.87;;
5393;SDS011;2720;52.396;10.064;2023-03-04T10:22:23;10.33;;;3.07;;
5393;SDS011;2720;52.396;10.064;2023-03-04T10:25:00;15.20;;;3.17;;
5393;SDS011;2720;52.396;10.064;2023-03-04T10:27:39;8.43;;;2.00;;
5393;SDS011;2720;52.396;10.064;2023-03-04T10:30:09;5.50;;;1.93;;
5393;SDS011;2720;52.396;10.064;2023-03-04T10:32:45;17.20;;;3.60;;
5393;SDS011;2720;52.396;10.064;2023-03-04T10:35:13;12.43;;;2.53;;
5393;SDS011;2720;52.396;10.064;2023-03-04T10:37:44;16.17;;;3.60;;
5393;SDS011;2720;52.396;10.064;2023-03-04T10:40:22;24.13;;;3.90;;
5393;SDS011;2720;52.396;10.064;2023-03-04T10:42:50;12.53;;;2.93;;
5393;SDS011;2720;52.396;10.064;2023-03-04T10:45:19;11.93;;;2.47;;
5393;SDS011;2720;52.396;10.064;2023-03-04T10:47:51;7.03;;;2.00;;
5393;SDS011;2720;52.396;10.064;2023-03-04T10:50:23;13.17;;;2.90;;
5393;SDS011;2720;52.396;10.064;2023-03-04T10:52:51;7.10;;;1.83;;
5393;SDS011;2720;52.396;10.064;2023-03-04T10:55:22;7.03;;;1.90;;
5393;SDS011;2720;52.396;10.064;2023-03-04T10:57:50;12.37;;;2.20;;
5393;SDS011;2720;52.396;10.064;2023-03-04T11:00:23;12.13;;;1.70;;
5393;SDS011;2720;52.396;10.064;2023-03-04T11:02:52;15.57;;;2.27;;
5393;SDS011;2720;52.396;10.064;2023-03-04T11:05:39;4.90;;;1.50;;
5393;SDS011;2720;52.396;10.064;2023-03-04T11:08:14;10.17;;;1.60;;
5393;SDS011;2720;52.396;10.064;2023-03-04T11:10:45;5.10;;;1.30;;
5393;SDS011;2720;52.396;10.064;2023-03-04T11:13:16;15.80;;;2.10;;
5393;SDS011;2720;52.396;10.064;2023-03-04T11:15:48;7.27;;;1.20;;
5393;SDS011;2720;52.396;10.064;2023-03-04T11:18:17;4.80;;;1.30;;
5393;SDS011;2720;52.396;10.064;2023-03-04T11:20:45;7.97;;;1.03;;
5393;SDS011;2720;52.396;10.064;2023-03-04T11:23:15;6.80;;;1.60;;
5393;SDS011;2720;52.396;10.064;2023-03-04T11:25:46;15.40;;;1.33;;
5393;SDS011;2720;52.396;10.064;2023-03-04T11:28:17;7.60;;;1.10;;
5393;SDS011;2720;52.396;10.064;2023-03-04T11:30:49;13.27;;;1.80;;
5393;SDS011;2720;52.396;10.064;2023-03-04T11:33:21;13.03;;;1.40;;
5393;SDS011;2720;52.396;10.064;2023-03-04T11:35:54;9.37;;;1.70;;
5393;SDS011;2720;52.396;10.064;2023-03-04T11:38:28;24.63;;;1.97;;
5393;SDS011;2720;52.396;10.064;2023-03-04T11:41:02;6.17;;;1.33;;
5393;SDS011;2720;52.396;10.064;2023-03-04T11:43:34;9.07;;;2.20;;
5393;SDS011;2720;52.396;10.064;2023-03-04T11:46:09;8.47;;;1.17;;
5393;SDS011;2720;52.396;10.064;2023-03-04T11:49:07;4.30;;;0.70;;
5393;SDS011;2720;52.396;10.064;2023-03-04T11:51:47;2.70;;;0.83;;
5393;SDS011;2720;52.396;10.064;2023-03-04T11:54:22;11.33;;;1.10;;
5393;SDS011;2720;52.396;10.064;2023-03-04T11:56:55;16.83;;;1.60;;
5393;SDS011;2720;52.396;10.064;2023-03-04T11:59:31;9.87;;;1.43;;
5393;SDS011;2720;52.396;10.064;2023-03-04T12:02:15;8.93;;;1.17;;
5393;SDS011;2720;52.396;10.064;2023-03-04T12:11:02;6.67;;;1.63;;
5393;SDS011;2720;52.396;10.064;2023-03-04T12:13:41;6.07;;;0.83;;
5393;SDS011;2720;52.396;10.064;2023-03-04T12:16:42;1.97;;;0.93;;
5393;SDS011;2720;52.396;10.064;2023-03-04T12:19:25;15.07;;;1.07;;
5393;SDS011;2720;52.396;10.064;2023-03-04T12:28:02;9.40;;;1.40;;
5393;SDS011;2720;52.396;10.064;2023-03-04T12:30:56;6.93;;;1.30;;
5393;SDS011;2720;52.396;10.064;2023-03-04T12:33:37;14.43;;;1.77;;
5393;SDS011;2720;52.396;10.064;2023-03-04T12:36:13;8.67;;;1.37;;
5393;SDS011;2720;52.396;10.064;2023-03-04T12:38:50;21.47;;;2.63;;
5393;SDS011;2720;52.396;10.064;2023-03-04T12:41:26;13.23;;;2.20;;
5393;SDS011;2720;52.396;10.064;2023-03-04T12:44:03;5.70;;;1.53;;
5393;SDS011;2720;52.396;10.064;2023-03-04T12:46:43;11.33;;;1.90;;
5393;SDS011;2720;52.396;10.064;2023-03-04T12:49:25;6.00;;;1.27;;
5393;SDS011;2720;52.396;10.064;2023-03-04T12:52:05;27.67;;;1.67;;
5393;SDS011;2720;52.396;10.064;2023-03-04T12:54:40;10.47;;;1.20;;
5393;SDS011;2720;52.396;10.064;2023-03-04T12:57:11;4.53;;;1.20;;
5393;SDS011;2720;52.396;10.064;2023-03-04T12:59:42;6.10;;;1.80;;
5393;SDS011;2720;52.396;10.064;2023-03-04T13:02:28;5.50;;;1.37;;
5393;SDS011;2720;52.396;10.064;2023-03-04T13:05:21;13.60;;;1.80;;
5393;SDS011;2720;52.396;10.064;2023-03-04T13:07:55;3.73;;;1.13;;
5393;SDS011;2720;52.396;10.064;2023-03-04T13:10:29;5.37;;;1.60;;
5393;SDS011;2720;52.396;10.064;2023-03-04T13:12:57;8.40;;;3.73;;
5393;SDS011;2720;52.396;10.064;2023-03-04T13:15:29;1.70;;;0.90;;
5393;SDS011;2720;52.396;10.064;2023-03-04T13:18:03;3.70;;;1.10;;
5393;SDS011;2720;52.396;10.064;2023-03-04T13:21:04;10.60;;;1.67;;
5393;SDS011;2720;52.396;10.064;2023-03-04T13:23:45;5.00;;;0.90;;
5393;SDS011;2720;52.396;10.064;2023-03-04T13:26:16;2.57;;;1.33;;
5393;SDS011;2720;52.396;10.064;2023-03-04T13:28:53;6.07;;;3.10;;
5393;SDS011;2720;52.396;10.064;2023-03-04T13:31:43;4.87;;;1.30;;
5393;SDS011;2720;52.396;10.064;2023-03-04T13:34:48;15.30;;;2.80;;
5393;SDS011;2720;52.396;10.064;2023-03-04T13:37:30;15.20;;;1.77;;
5393;SDS011;2720;52.396;10.064;2023-03-04T13:45:52;17.80;;;2.20;;
5393;SDS011;2720;52.396;10.064;2023-03-04T13:48:23;14.37;;;2.57;;
5393;SDS011;2720;52.396;10.064;2023-03-04T13:51:02;9.17;;;1.53;;
5393;SDS011;2720;52.396;10.064;2023-03-04T13:53:40;20.10;;;2.27;;
5393;SDS011;2720;52.396;10.064;2023-03-04T13:56:25;5.67;;;1.87;;
5393;SDS011;2720;52.396;10.064;2023-03-04T13:59:07;13.03;;;1.90;;
5393;SDS011;2720;52.396;10.064;2023-03-04T14:04:36;14.17;;;1.17;;
5393;SDS011;2720;52.396;10.064;2023-03-04T14:07:17;3.73;;;1.80;;
5393;SDS011;2720;52.396;10.064;2023-03-04T14:09:57;4.07;;;1.20;;
5393;SDS011;2720;52.396;10.064;2023-03-04T14:12:26;9.30;;;1.47;;
5393;SDS011;2720;52.396;10.064;2023-03-04T14:14:56;17.60;;;1.67;;
5393;SDS011;2720;52.396;10.064;2023-03-04T14:17:26;3.97;;;1.20;;
5393;SDS011;2720;52.396;10.064;2023-03-04T14:19:56;18.87;;;2.10;;
5393;SDS011;2720;52.396;10.064;2023-03-04T14:22:26;10.43;;;1.70;;
5393;SDS011;2720;52.396;10.064;2023-03-04T14:24:56;6.50;;;1.30;;
5393;SDS011;2720;52.396;10.064;2023-03-04T14:27:24;7.70;;;1.93;;
5393;SDS011;2720;52.396;10.064;2023-03-04T14:29:54;7.73;;;1.77;;
5393;SDS011;2720;52.396;10.064;2023-03-04T14:32:22;8.23;;;2.27;;
5393;SDS011;2720;52.396;10.064;2023-03-04T14:34:50;11.40;;;2.43;;
5393;SDS011;2720;52.396;10.064;2023-03-04T14:37:23;11.33;;;2.40;;
5393;SDS011;2720;52.396;10.064;2023-03-04T14:39:57;15.23;;;2.30;;
5393;SDS011;2720;52.396;10.064;2023-03-04T14:42:26;19.17;;;2.50;;
5393;SDS011;2720;52.396;10.064;2023-03-04T14:44:59;26.73;;;2.80;;
5393;SDS011;2720;52.396;10.064;2023-03-04T14:47:28;10.50;;;2.60;;
5393;SDS011;2720;52.396;10.064;2023-03-04T14:50:00;13.90;;;3.20;;
5393;SDS011;2720;52.396;10.064;2023-03-04T14:52:35;6.97;;;2.50;;
5393;SDS011;2720;52.396;10.064;2023-03-04T14:55:20;7.70;;;2.00;;
5393;SDS011;2720;52.396;10.064;2023-03-04T14:57:49;14.33;;;1.90;;
5393;SDS011;2720;52.396;10.064;2023-03-04T15:00:30;19.87;;;2.07;;
5393;SDS011;2720;52.396;10.064;2023-03-04T15:02:58;23.17;;;1.70;;
5393;SDS011;2720;52.396;10.064;2023-03-04T15:05:27;10.70;;;2.37;;
5393;SDS011;2720;52.396;10.064;2023-03-04T15:07:58;19.43;;;3.03;;
5393;SDS011;2720;52.396;10.064;2023-03-04T15:10:27;6.27;;;1.80;;
5393;SDS011;2720;52.396;10.064;2023-03-04T15:12:56;19.57;;;2.27;;
5393;SDS011;2720;52.396;10.064;2023-03-04T15:15:30;15.80;;;2.43;;
5393;SDS011;2720;52.396;10.064;2023-03-04T15:18:01;11.23;;;1.53;;
5393;SDS011;2720;52.396;10.064;2023-03-04T15:20:29;16.87;;;2.80;;
5393;SDS011;2720;52.396;10.064;2023-03-04T15:23:03;5.90;;;1.77;;
5393;SDS011;2720;52.396;10.064;2023-03-04T15:25:32;8.03;;;2.10;;
5393;SDS011;2720;52.396;10.064;2023-03-04T15:28:00;14.23;;;1.90;;
5393;SDS011;2720;52.396;10.064;2023-03-04T15:30:29;5.63;;;2.00;;
5393;SDS011;2720;52.396;10.064;2023-03-04T15:32:57;9.87;;;1.90;;
5393;SDS011;2720;52.396;10.064;2023-03-04T15:35:26;15.90;;;1.77;;